sensor_id;sensor_type;location;lat;lon;timestamp;pressure;altitude;pressure_sealevel;temperature;humidity
38452;BME280;24231;52.514;13.438;2023-06-22T00:02:08;101378.75;;;26.22;44.05
38452;BME280;24231;52.514;13.438;2023-06-22T00:04:35;101385.62;;;25.55;45.29
38452;BME280;24231;52.514;13.438;2023-06-22T00:07:02;101383.35;;;26.29;43.81
38452;BME280;24231;52.514;13.438;2023-06-22T00:09:29;101379.31;;;26.88;42.42
38452;BME280;24231;52.514;13.438;2023-06-22T00:12:02;101381.36;;;26.93;42.28
38452;BME280;24231;52.514;13.438;2023-06-22T00:14:30;101386.32;;;27.08;41.65
38452;BME280;24231;52.514;13.438;2023-06-22T00:16:58;101387.80;;;27.21;41.36
38452;BME280;24231;52.514;13.438;2023-06-22T00:19:25;101385.70;;;27.13;41.93
38452;BME280;24231;52.514;13.438;2023-06-22T00:21:52;101390.55;;;27.09;42.07
38452;BME280;24231;52.514;13.438;2023-06-22T00:24:20;101396.98;;;26.00;44.23
38452;BME280;24231;52.514;13.438;2023-06-22T00:26:48;101399.47;;;26.00;44.29
38452;BME280;24231;52.514;13.438;2023-06-22T00:29:16;101403.32;;;26.36;43.77
38452;BME280;24231;52.514;13.438;2023-06-22T00:31:43;101404.54;;;26.10;44.24
38452;BME280;24231;52.514;13.438;2023-06-22T00:34:10;101403.97;;;26.35;43.57
38452;BME280;24231;52.514;13.438;2023-06-22T00:36:37;101401.36;;;26.42;43.30
38452;BME280;24231;52.514;13.438;2023-06-22T00:39:04;101402.58;;;26.76;43.29
38452;BME280;24231;52.514;13.438;2023-06-22T00:41:31;101403.75;;;26.59;43.36
38452;BME280;24231;52.514;13.438;2023-06-22T00:43:59;101405.26;;;26.31;44.17
38452;BME280;24231;52.514;13.438;2023-06-22T00:46:28;101406.68;;;26.49;43.63
38452;BME280;24231;52.514;13.438;2023-06-22T00:48:55;101407.90;;;26.56;43.64
38452;BME280;24231;52.514;13.438;2023-06-22T00:51:23;101406.92;;;26.48;43.70
38452;BME280;24231;52.514;13.438;2023-06-22T00:53:51;101407.41;;;26.60;43.13
38452;BME280;24231;52.514;13.438;2023-06-22T00:56:18;101403.74;;;26.77;42.94
38452;BME280;24231;52.514;13.438;2023-06-22T00:58:45;101404.89;;;26.60;43.26
38452;BME280;24231;52.514;13.438;2023-06-22T01:01:13;101407.50;;;26.52;43.81
38452;BME280;24231;52.514;13.438;2023-06-22T01:03:39;101410.98;;;26.49;43.94
38452;BME280;24231;52.514;13.438;2023-06-22T01:06:10;101413.63;;;26.53;43.78
38452;BME280;24231;52.514;13.438;2023-06-22T01:08:41;101410.49;;;26.57;43.76
38452;BME280;24231;52.514;13.438;2023-06-22T01:11:17;101412.04;;;26.55;43.53
38452;BME280;24231;52.514;13.438;2023-06-22T01:13:53;101416.04;;;26.01;45.17
38452;BME280;24231;52.514;13.438;2023-06-22T01:16:31;101422.18;;;26.37;44.51
38452;BME280;24231;52.514;13.438;2023-06-22T01:19:05;101423.25;;;26.43;43.93
38452;BME280;24231;52.514;13.438;2023-06-22T01:21:36;101423.92;;;26.48;44.12
38452;BME280;24231;52.514;13.438;2023-06-22T01:24:15;101422.84;;;25.68;45.15
38452;BME280;24231;52.514;13.438;2023-06-22T01:26:57;101421.22;;;26.58;43.76
38452;BME280;24231;52.514;13.438;2023-06-22T01:29:28;101417.83;;;26.49;44.21
38452;BME280;24231;52.514;13.438;2023-06-22T01:31:56;101419.99;;;26.47;44.57
38452;BME280;24231;52.514;13.438;2023-06-22T01:34:24;101423.40;;;26.38;44.90
38452;BME280;24231;52.514;13.438;2023-06-22T01:36:52;101425.70;;;26.37;44.96
38452;BME280;24231;52.514;13.438;2023-06-22T01:39:21;101427.58;;;26.18;45.25
38452;BME280;24231;52.514;13.438;2023-06-22T01:41:48;101435.39;;;25.15;47.71
38452;BME280;24231;52.514;13.438;2023-06-22T01:44:17;101445.34;;;23.48;52.08
38452;BME280;24231;52.514;13.438;2023-06-22T01:46:45;101438.83;;;24.87;48.44
38452;BME280;24231;52.514;13.438;2023-06-22T01:49:13;101438.02;;;25.77;46.83
38452;BME280;24231;52.514;13.438;2023-06-22T01:51:47;101441.03;;;25.74;46.34
38452;BME280;24231;52.514;13.438;2023-06-22T01:54:14;101443.01;;;25.59;46.62
38452;BME280;24231;52.514;13.438;2023-06-22T01:56:42;101441.54;;;25.87;45.86
38452;BME280;24231;52.514;13.438;2023-06-22T01:59:14;101442.95;;;23.45;52.79
38452;BME280;24231;52.514;13.438;2023-06-22T02:01:51;101438.73;;;22.63;55.74
38452;BME280;24231;52.514;13.438;2023-06-22T02:04:26;101438.29;;;24.75;50.33
38452;BME280;24231;52.514;13.438;2023-06-22T02:06:56;101445.65;;;23.39;54.17
38452;BME280;24231;52.514;13.438;2023-06-22T02:09:29;101444.93;;;22.25;58.76
38452;BME280;24231;52.514;13.438;2023-06-22T02:11:58;101444.36;;;23.37;55.33
38452;BME280;24231;52.514;13.438;2023-06-22T02:14:27;101445.17;;;22.47;58.20
38452;BME280;24231;52.514;13.438;2023-06-22T02:16:56;101446.61;;;21.40;62.34
38452;BME280;24231;52.514;13.438;2023-06-22T02:19:23;101446.85;;;21.18;64.84
38452;BME280;24231;52.514;13.438;2023-06-22T02:21:51;101451.81;;;20.68;67.11
38452;BME280;24231;52.514;13.438;2023-06-22T02:24:18;101456.04;;;21.33;65.14
38452;BME280;24231;52.514;13.438;2023-06-22T02:26:45;101460.07;;;21.43;65.92
38452;BME280;24231;52.514;13.438;2023-06-22T02:29:17;101464.88;;;21.20;66.39
38452;BME280;24231;52.514;13.438;2023-06-22T02:31:45;101466.19;;;21.79;64.44
38452;BME280;24231;52.514;13.438;2023-06-22T02:34:12;101467.98;;;21.92;62.91
38452;BME280;24231;52.514;13.438;2023-06-22T02:36:39;101466.74;;;21.49;64.83
38452;BME280;24231;52.514;13.438;2023-06-22T02:39:06;101468.82;;;21.17;66.55
38452;BME280;24231;52.514;13.438;2023-06-22T02:41:33;101467.35;;;21.37;65.99
38452;BME280;24231;52.514;13.438;2023-06-22T02:44:01;101466.25;;;21.03;67.59
38452;BME280;24231;52.514;13.438;2023-06-22T02:46:28;101462.11;;;21.48;66.35
38452;BME280;24231;52.514;13.438;2023-06-22T02:48:55;101465.60;;;21.02;68.99
38452;BME280;24231;52.514;13.438;2023-06-22T02:51:22;101465.53;;;21.02;69.09
38452;BME280;24231;52.514;13.438;2023-06-22T02:53:50;101461.88;;;20.93;68.93
38452;BME280;24231;52.514;13.438;2023-06-22T02:56:17;101460.00;;;20.67;70.40
38452;BME280;24231;52.514;13.438;2023-06-22T02:58:44;101464.02;;;21.44;67.07
38452;BME280;24231;52.514;13.438;2023-06-22T03:01:21;101464.81;;;21.32;67.77
38452;BME280;24231;52.514;13.438;2023-06-22T03:03:49;101459.52;;;21.40;67.16
38452;BME280;24231;52.514;13.438;2023-06-22T03:06:20;101455.85;;;21.38;67.01
38452;BME280;24231;52.514;13.438;2023-06-22T03:08:46;101460.63;;;21.57;65.49
38452;BME280;24231;52.514;13.438;2023-06-22T03:11:13;101461.47;;;21.52;65.01
38452;BME280;24231;52.514;13.438;2023-06-22T03:13:40;101463.83;;;21.40;64.59
38452;BME280;24231;52.514;13.438;2023-06-22T03:16:08;101461.69;;;22.17;60.63
38452;BME280;24231;52.514;13.438;2023-06-22T03:18:35;101461.42;;;21.84;62.31
38452;BME280;24231;52.514;13.438;2023-06-22T03:21:02;101462.54;;;20.84;65.42
38452;BME280;24231;52.514;13.438;2023-06-22T03:23:30;101459.14;;;20.81;65.40
38452;BME280;24231;52.514;13.438;2023-06-22T03:25:57;101457.93;;;21.51;62.38
38452;BME280;24231;52.514;13.438;2023-06-22T03:28:24;101456.76;;;21.58;61.53
38452;BME280;24231;52.514;13.438;2023-06-22T03:30:51;101456.13;;;21.55;60.66
38452;BME280;24231;52.514;13.438;2023-06-22T03:33:18;101455.21;;;21.40;61.49
38452;BME280;24231;52.514;13.438;2023-06-22T03:35:46;101454.22;;;20.82;63.19
38452;BME280;24231;52.514;13.438;2023-06-22T03:38:12;101463.51;;;21.43;61.33
38452;BME280;24231;52.514;13.438;2023-06-22T03:40:40;101462.47;;;20.92;63.64
38452;BME280;24231;52.514;13.438;2023-06-22T03:43:07;101463.48;;;21.50;61.46
38452;BME280;24231;52.514;13.438;2023-06-22T03:45:35;101463.38;;;21.21;62.85
38452;BME280;24231;52.514;13.438;2023-06-22T03:48:02;101464.87;;;21.35;62.46
38452;BME280;24231;52.514;13.438;2023-06-22T03:50:29;101460.06;;;21.80;59.62
38452;BME280;24231;52.514;13.438;2023-06-22T03:52:56;101458.60;;;21.92;59.40
38452;BME280;24231;52.514;13.438;2023-06-22T03:55:23;101460.75;;;22.30;57.96
38452;BME280;24231;52.514;13.438;2023-06-22T03:57:50;101463.12;;;22.67;56.65
38452;BME280;24231;52.514;13.438;2023-06-22T04:00:18;101460.70;;;23.07;54.79
38452;BME280;24231;52.514;13.438;2023-06-22T04:02:45;101461.84;;;23.41;52.72
38452;BME280;24231;52.514;13.438;2023-06-22T04:05:12;101464.56;;;23.58;52.96
38452;BME280;24231;52.514;13.438;2023-06-22T04:07:40;101460.46;;;25.42;46.96
38452;BME280;24231;52.514;13.438;2023-06-22T04:10:08;101468.74;;;24.43;48.81
38452;BME280;24231;52.514;13.438;2023-06-22T04:12:35;101467.62;;;24.80;47.76
38452;BME280;24231;52.514;13.438;2023-06-22T04:15:02;101470.28;;;23.83;50.17
38452;BME280;24231;52.514;13.438;2023-06-22T04:17:30;101469.79;;;21.84;55.51
38452;BME280;24231;52.514;13.438;2023-06-22T04:19:57;101468.40;;;23.08;52.28
38452;BME280;24231;52.514;13.438;2023-06-22T04:22:24;101474.35;;;24.00;48.65
38452;BME280;24231;52.514;13.438;2023-06-22T04:24:51;101477.59;;;24.25;47.84
38452;BME280;24231;52.514;13.438;2023-06-22T04:27:18;101476.69;;;25.92;43.60
38452;BME280;24231;52.514;13.438;2023-06-22T04:29:46;101481.39;;;25.67;43.33
38452;BME280;24231;52.514;13.438;2023-06-22T04:32:12;101487.60;;;25.10;44.71
38452;BME280;24231;52.514;13.438;2023-06-22T04:34:40;101490.66;;;24.92;45.42
38452;BME280;24231;52.514;13.438;2023-06-22T04:37:07;101493.11;;;23.91;47.49
38452;BME280;24231;52.514;13.438;2023-06-22T04:39:35;101494.05;;;23.63;48.06
38452;BME280;24231;52.514;13.438;2023-06-22T04:42:01;101491.40;;;23.90;47.09
38452;BME280;24231;52.514;13.438;2023-06-22T04:44:28;101495.70;;;24.35;45.49
38452;BME280;24231;52.514;13.438;2023-06-22T04:46:56;101502.89;;;24.34;45.83
38452;BME280;24231;52.514;13.438;2023-06-22T04:49:23;101495.70;;;23.40;48.23
38452;BME280;24231;52.514;13.438;2023-06-22T04:51:51;101500.27;;;24.37;46.20
38452;BME280;24231;52.514;13.438;2023-06-22T04:54:18;101502.41;;;23.55;47.41
38452;BME280;24231;52.514;13.438;2023-06-22T04:56:46;101499.68;;;23.95;46.65
38452;BME280;24231;52.514;13.438;2023-06-22T04:59:14;101496.76;;;24.74;44.55
38452;BME280;24231;52.514;13.438;2023-06-22T05:01:42;101503.78;;;23.79;46.42
38452;BME280;24231;52.514;13.438;2023-06-22T05:04:10;101501.61;;;24.72;44.28
38452;BME280;24231;52.514;13.438;2023-06-22T05:06:37;101503.68;;;24.82;44.12
38452;BME280;24231;52.514;13.438;2023-06-22T05:09:04;101496.26;;;24.41;44.65
38452;BME280;24231;52.514;13.438;2023-06-22T05:11:33;101494.67;;;24.93;43.52
38452;BME280;24231;52.514;13.438;2023-06-22T05:14:00;101494.31;;;25.49;42.39
38452;BME280;24231;52.514;13.438;2023-06-22T05:16:26;101496.31;;;25.10;43.55
38452;BME280;24231;52.514;13.438;2023-06-22T05:18:54;101497.55;;;24.66;45.10
38452;BME280;24231;52.514;13.438;2023-06-22T05:21:22;101500.99;;;24.36;45.76
38452;BME280;24231;52.514;13.438;2023-06-22T05:23:50;101506.15;;;23.75;47.31
38452;BME280;24231;52.514;13.438;2023-06-22T05:26:18;101502.72;;;24.06;46.64
38452;BME280;24231;52.514;13.438;2023-06-22T05:28:45;101509.99;;;24.27;46.17
38452;BME280;24231;52.514;13.438;2023-06-22T05:31:13;101511.34;;;23.70;47.58
38452;BME280;24231;52.514;13.438;2023-06-22T05:33:41;101508.04;;;23.57;47.06
38452;BME280;24231;52.514;13.438;2023-06-22T05:36:09;101504.45;;;24.97;44.43
38452;BME280;24231;52.514;13.438;2023-06-22T05:39:13;101504.10;;;23.85;47.14
38452;BME280;24231;52.514;13.438;2023-06-22T05:41:41;101499.67;;;25.42;43.57
38452;BME280;24231;52.514;13.438;2023-06-22T05:44:08;101511.39;;;24.36;46.26
38452;BME280;24231;52.514;13.438;2023-06-22T05:46:37;101514.66;;;24.42;46.24
38452;BME280;24231;52.514;13.438;2023-06-22T05:49:03;101513.97;;;26.08;42.28
38452;BME280;24231;52.514;13.438;2023-06-22T05:51:31;101522.00;;;24.83;45.67
38452;BME280;24231;52.514;13.438;2023-06-22T05:53:57;101529.06;;;24.00;47.50
38452;BME280;24231;52.514;13.438;2023-06-22T05:56:24;101533.37;;;24.89;45.80
38452;BME280;24231;52.514;13.438;2023-06-22T05:58:51;101535.61;;;24.07;47.39
38452;BME280;24231;52.514;13.438;2023-06-22T06:01:18;101536.80;;;24.66;45.60
38452;BME280;24231;52.514;13.438;2023-06-22T06:03:45;101538.66;;;24.20;47.13
38452;BME280;24231;52.514;13.438;2023-06-22T06:06:12;101530.66;;;24.93;44.94
38452;BME280;24231;52.514;13.438;2023-06-22T06:08:39;101533.49;;;25.15;44.46
38452;BME280;24231;52.514;13.438;2023-06-22T06:11:06;101537.50;;;24.42;45.90
38452;BME280;24231;52.514;13.438;2023-06-22T06:13:33;101544.58;;;24.08;45.63
38452;BME280;24231;52.514;13.438;2023-06-22T06:16:01;101539.48;;;24.15;45.87
38452;BME280;24231;52.514;13.438;2023-06-22T06:18:28;101530.86;;;24.31;45.49
38452;BME280;24231;52.514;13.438;2023-06-22T06:20:56;101530.96;;;24.23;45.84
38452;BME280;24231;52.514;13.438;2023-06-22T06:23:23;101528.36;;;24.94;45.00
38452;BME280;24231;52.514;13.438;2023-06-22T06:25:50;101512.60;;;25.60;43.46
38452;BME280;24231;52.514;13.438;2023-06-22T06:28:17;101511.46;;;25.55;43.12
38452;BME280;24231;52.514;13.438;2023-06-22T06:30:44;101515.15;;;26.63;40.99
38452;BME280;24231;52.514;13.438;2023-06-22T06:33:12;101518.61;;;25.61;42.46
38452;BME280;24231;52.514;13.438;2023-06-22T06:35:40;101527.46;;;25.50;42.75
38452;BME280;24231;52.514;13.438;2023-06-22T06:38:06;101529.82;;;26.11;41.74
38452;BME280;24231;52.514;13.438;2023-06-22T06:40:34;101532.36;;;26.84;40.15
38452;BME280;24231;52.514;13.438;2023-06-22T06:43:01;101532.87;;;25.98;41.02
38452;BME280;24231;52.514;13.438;2023-06-22T06:45:29;101540.47;;;25.83;41.12
38452;BME280;24231;52.514;13.438;2023-06-22T06:47:57;101537.40;;;26.00;41.05
38452;BME280;24231;52.514;13.438;2023-06-22T06:50:24;101530.44;;;26.33;40.29
38452;BME280;24231;52.514;13.438;2023-06-22T06:52:52;101528.54;;;25.53;41.09
38452;BME280;24231;52.514;13.438;2023-06-22T06:55:19;101518.76;;;25.36;41.39
38452;BME280;24231;52.514;13.438;2023-06-22T06:57:47;101518.61;;;26.03;40.47
38452;BME280;24231;52.514;13.438;2023-06-22T07:00:15;101523.03;;;26.76;37.62
38452;BME280;24231;52.514;13.438;2023-06-22T07:02:44;101519.73;;;26.65;38.51
38452;BME280;24231;52.514;13.438;2023-06-22T07:05:12;101522.40;;;26.73;38.36
38452;BME280;24231;52.514;13.438;2023-06-22T07:07:39;101516.03;;;26.80;37.98
38452;BME280;24231;52.514;13.438;2023-06-22T07:10:07;101505.33;;;27.51;36.87
38452;BME280;24231;52.514;13.438;2023-06-22T07:12:35;101500.62;;;29.77;33.87
38452;BME280;24231;52.514;13.438;2023-06-22T07:15:03;101502.69;;;28.23;35.54
38452;BME280;24231;52.514;13.438;2023-06-22T07:17:31;101497.59;;;28.13;36.12
38452;BME280;24231;52.514;13.438;2023-06-22T07:19:58;101491.51;;;28.64;34.86
38452;BME280;24231;52.514;13.438;2023-06-22T07:22:26;101490.02;;;29.92;32.79
38452;BME280;24231;52.514;13.438;2023-06-22T07:24:53;101486.90;;;28.99;34.53
38452;BME280;24231;52.514;13.438;2023-06-22T07:27:20;101486.65;;;27.19;36.35
38452;BME280;24231;52.514;13.438;2023-06-22T07:29:48;101485.70;;;27.95;36.21
38452;BME280;24231;52.514;13.438;2023-06-22T07:32:16;101485.85;;;29.19;33.30
38452;BME280;24231;52.514;13.438;2023-06-22T07:34:43;101487.93;;;28.74;34.22
38452;BME280;24231;52.514;13.438;2023-06-22T07:37:10;101480.65;;;27.82;34.75
38452;BME280;24231;52.514;13.438;2023-06-22T07:39:38;101477.67;;;27.99;34.11
38452;BME280;24231;52.514;13.438;2023-06-22T07:42:05;101477.70;;;26.43;36.04
38452;BME280;24231;52.514;13.438;2023-06-22T07:44:33;101480.72;;;26.45;36.67
38452;BME280;24231;52.514;13.438;2023-06-22T07:47:00;101477.55;;;26.39;36.47
38452;BME280;24231;52.514;13.438;2023-06-22T07:49:28;101472.09;;;27.04;35.66
38452;BME280;24231;52.514;13.438;2023-06-22T07:51:55;101473.69;;;27.36;35.02
38452;BME280;24231;52.514;13.438;2023-06-22T07:54:22;101475.47;;;28.19;33.66
38452;BME280;24231;52.514;13.438;2023-06-22T07:56:50;101473.52;;;29.26;31.97
38452;BME280;24231;52.514;13.438;2023-06-22T07:59:17;101476.99;;;28.56;32.15
38452;BME280;24231;52.514;13.438;2023-06-22T08:01:45;101475.91;;;28.33;32.43
38452;BME280;24231;52.514;13.438;2023-06-22T08:04:12;101475.64;;;27.62;32.22
38452;BME280;24231;52.514;13.438;2023-06-22T08:06:48;101471.14;;;27.17;33.98
38452;BME280;24231;52.514;13.438;2023-06-22T08:09:15;101472.03;;;28.16;32.39
38452;BME280;24231;52.514;13.438;2023-06-22T08:11:43;101471.19;;;28.60;31.09
38452;BME280;24231;52.514;13.438;2023-06-22T08:14:11;101467.29;;;28.60;31.43
38452;BME280;24231;52.514;13.438;2023-06-22T08:16:38;101477.73;;;28.27;31.26
38452;BME280;24231;52.514;13.438;2023-06-22T08:19:06;101478.71;;;27.60;32.68
38452;BME280;24231;52.514;13.438;2023-06-22T08:21:33;101468.11;;;27.28;33.62
38452;BME280;24231;52.514;13.438;2023-06-22T08:24:06;101482.44;;;26.23;35.26
38452;BME280;24231;52.514;13.438;2023-06-22T08:26:33;101476.29;;;26.87;34.24
38452;BME280;24231;52.514;13.438;2023-06-22T08:29:01;101478.51;;;26.85;33.58
38452;BME280;24231;52.514;13.438;2023-06-22T08:31:28;101480.90;;;26.67;33.73
38452;BME280;24231;52.514;13.438;2023-06-22T08:33:56;101483.89;;;25.76;35.19
38452;BME280;24231;52.514;13.438;2023-06-22T08:37:13;101474.77;;;26.18;35.46
38452;BME280;24231;52.514;13.438;2023-06-22T08:39:40;101469.06;;;26.28;34.72
38452;BME280;24231;52.514;13.438;2023-06-22T08:42:07;101477.45;;;26.22;35.53
38452;BME280;24231;52.514;13.438;2023-06-22T08:44:34;101468.90;;;27.15;34.71
38452;BME280;24231;52.514;13.438;2023-06-22T08:47:01;101469.58;;;26.52;36.22
38452;BME280;24231;52.514;13.438;2023-06-22T08:49:28;101469.51;;;27.24;35.17
38452;BME280;24231;52.514;13.438;2023-06-22T08:51:55;101472.68;;;27.11;35.05
38452;BME280;24231;52.514;13.438;2023-06-22T08:54:32;101471.41;;;26.67;35.39
38452;BME280;24231;52.514;13.438;2023-06-22T08:56:59;101472.10;;;26.30;36.07
38452;BME280;24231;52.514;13.438;2023-06-22T08:59:26;101477.53;;;26.40;35.99
38452;BME280;24231;52.514;13.438;2023-06-22T09:01:53;101480.01;;;26.42;36.29
38452;BME280;24231;52.514;13.438;2023-06-22T09:04:20;101474.38;;;26.46;36.75
38452;BME280;24231;52.514;13.438;2023-06-22T09:06:47;101469.89;;;26.70;35.51
38452;BME280;24231;52.514;13.438;2023-06-22T09:09:15;101468.02;;;26.94;35.70
38452;BME280;24231;52.514;13.438;2023-06-22T09:11:42;101463.95;;;27.04;36.03
38452;BME280;24231;52.514;13.438;2023-06-22T09:14:10;101468.18;;;26.90;35.41
38452;BME280;24231;52.514;13.438;2023-06-22T09:16:38;101463.98;;;28.11;33.35
38452;BME280;24231;52.514;13.438;2023-06-22T09:19:06;101458.45;;;27.82;34.05
38452;BME280;24231;52.514;13.438;2023-06-22T09:21:33;101453.96;;;27.03;35.83
38452;BME280;24231;52.514;13.438;2023-06-22T09:24:01;101455.69;;;27.51;34.46
38452;BME280;24231;52.514;13.438;2023-06-22T09:26:28;101456.23;;;27.45;32.94
38452;BME280;24231;52.514;13.438;2023-06-22T09:28:56;101452.87;;;27.17;33.62
38452;BME280;24231;52.514;13.438;2023-06-22T09:31:23;101458.80;;;27.40;32.88
38452;BME280;24231;52.514;13.438;2023-06-22T09:33:51;101455.22;;;27.97;31.56
38452;BME280;24231;52.514;13.438;2023-06-22T09:36:18;101452.70;;;27.68;31.69
38452;BME280;24231;52.514;13.438;2023-06-22T09:38:48;101449.59;;;27.62;31.95
38452;BME280;24231;52.514;13.438;2023-06-22T09:41:17;101450.59;;;27.88;31.47
38452;BME280;24231;52.514;13.438;2023-06-22T09:43:44;101444.36;;;28.37;30.55
38452;BME280;24231;52.514;13.438;2023-06-22T09:46:11;101442.24;;;27.82;32.33
38452;BME280;24231;52.514;13.438;2023-06-22T09:48:39;101446.69;;;27.69;32.83
38452;BME280;24231;52.514;13.438;2023-06-22T09:51:06;101446.18;;;28.15;32.38
38452;BME280;24231;52.514;13.438;2023-06-22T09:53:33;101444.33;;;28.00;33.11
38452;BME280;24231;52.514;13.438;2023-06-22T09:56:01;101442.33;;;27.29;33.91
38452;BME280;24231;52.514;13.438;2023-06-22T09:58:28;101439.18;;;27.72;33.64
38452;BME280;24231;52.514;13.438;2023-06-22T10:00:56;101436.54;;;27.42;34.47
38452;BME280;24231;52.514;13.438;2023-06-22T10:03:23;101437.87;;;28.82;31.73
38452;BME280;24231;52.514;13.438;2023-06-22T10:05:51;101444.95;;;28.77;31.46
38452;BME280;24231;52.514;13.438;2023-06-22T10:09:26;101448.41;;;27.63;32.75
38452;BME280;24231;52.514;13.438;2023-06-22T10:11:53;101449.17;;;27.63;33.19
38452;BME280;24231;52.514;13.438;2023-06-22T10:14:20;101447.84;;;28.40;32.28
38452;BME280;24231;52.514;13.438;2023-06-22T10:16:48;101441.97;;;29.30;31.37
38452;BME280;24231;52.514;13.438;2023-06-22T10:19:15;101444.41;;;28.33;32.94
38452;BME280;24231;52.514;13.438;2023-06-22T10:21:43;101442.44;;;28.22;33.21
38452;BME280;24231;52.514;13.438;2023-06-22T10:24:10;101439.50;;;28.14;33.37
38452;BME280;24231;52.514;13.438;2023-06-22T10:26:38;101431.66;;;28.65;32.73
38452;BME280;24231;52.514;13.438;2023-06-22T10:29:05;101435.47;;;28.40;33.19
38452;BME280;24231;52.514;13.438;2023-06-22T10:31:32;101437.72;;;27.79;33.82
38452;BME280;24231;52.514;13.438;2023-06-22T10:34:25;101419.08;;;29.12;31.65
38452;BME280;24231;52.514;13.438;2023-06-22T10:36:52;101429.24;;;28.22;33.01
38452;BME280;24231;52.514;13.438;2023-06-22T10:39:20;101416.46;;;28.47;32.90
38452;BME280;24231;52.514;13.438;2023-06-22T10:41:47;101425.57;;;28.37;33.02
38452;BME280;24231;52.514;13.438;2023-06-22T10:44:15;101420.29;;;27.73;34.09
38452;BME280;24231;52.514;13.438;2023-06-22T10:46:42;101424.62;;;28.00;33.44
38452;BME280;24231;52.514;13.438;2023-06-22T10:49:10;101410.37;;;29.17;31.65
38452;BME280;24231;52.514;13.438;2023-06-22T10:51:37;101407.69;;;28.84;32.05
38452;BME280;24231;52.514;13.438;2023-06-22T10:54:05;101402.31;;;29.00;31.54
38452;BME280;24231;52.514;13.438;2023-06-22T10:56:32;101407.03;;;28.42;32.37
38452;BME280;24231;52.514;13.438;2023-06-22T10:59:00;101406.77;;;27.74;32.99
38452;BME280;24231;52.514;13.438;2023-06-22T11:01:27;101397.89;;;29.06;31.29
38452;BME280;24231;52.514;13.438;2023-06-22T11:03:55;101388.12;;;28.41;32.53
38452;BME280;24231;52.514;13.438;2023-06-22T11:06:22;101401.29;;;27.99;32.95
38452;BME280;24231;52.514;13.438;2023-06-22T11:08:50;101398.69;;;27.41;32.90
38452;BME280;24231;52.514;13.438;2023-06-22T11:11:17;101385.94;;;27.43;33.37
38452;BME280;24231;52.514;13.438;2023-06-22T11:13:45;101380.68;;;27.84;32.72
38452;BME280;24231;52.514;13.438;2023-06-22T11:16:12;101388.62;;;28.02;33.23
38452;BME280;24231;52.514;13.438;2023-06-22T11:18:40;101393.14;;;27.74;33.80
38452;BME280;24231;52.514;13.438;2023-06-22T11:21:07;101389.91;;;27.88;32.77
38452;BME280;24231;52.514;13.438;2023-06-22T11:23:35;101379.83;;;27.96;32.01
38452;BME280;24231;52.514;13.438;2023-06-22T11:26:02;101377.89;;;27.35;32.99
38452;BME280;24231;52.514;13.438;2023-06-22T11:28:30;101377.39;;;27.77;32.40
38452;BME280;24231;52.514;13.438;2023-06-22T11:32:18;101367.32;;;27.03;34.38
38452;BME280;24231;52.514;13.438;2023-06-22T11:34:44;101370.46;;;27.06;33.71
38452;BME280;24231;52.514;13.438;2023-06-22T11:37:12;101368.54;;;27.35;33.68
38452;BME280;24231;52.514;13.438;2023-06-22T11:39:41;101357.76;;;28.37;31.78
38452;BME280;24231;52.514;13.438;2023-06-22T11:42:09;101360.05;;;28.33;32.50
38452;BME280;24231;52.514;13.438;2023-06-22T11:44:36;101358.27;;;29.58;29.80
38452;BME280;24231;52.514;13.438;2023-06-22T11:47:04;101364.96;;;28.58;31.46
38452;BME280;24231;52.514;13.438;2023-06-22T11:49:31;101372.23;;;27.05;33.11
38452;BME280;24231;52.514;13.438;2023-06-22T11:51:59;101372.89;;;26.95;34.13
38452;BME280;24231;52.514;13.438;2023-06-22T11:54:26;101364.17;;;28.32;32.01
38452;BME280;24231;52.514;13.438;2023-06-22T11:56:54;101373.72;;;28.03;32.50
38452;BME280;24231;52.514;13.438;2023-06-22T11:59:21;101381.44;;;27.67;32.86
38452;BME280;24231;52.514;13.438;2023-06-22T12:01:48;101377.58;;;27.84;32.12
38452;BME280;24231;52.514;13.438;2023-06-22T12:04:15;101368.26;;;28.30;31.01
38452;BME280;24231;52.514;13.438;2023-06-22T12:06:43;101366.50;;;28.23;31.78
38452;BME280;24231;52.514;13.438;2023-06-22T12:09:10;101366.43;;;27.67;32.17
38452;BME280;24231;52.514;13.438;2023-06-22T12:11:37;101357.20;;;28.24;31.71
38452;BME280;24231;52.514;13.438;2023-06-22T12:14:35;101355.98;;;29.06;30.99
38452;BME280;24231;52.514;13.438;2023-06-22T12:17:02;101346.88;;;28.62;31.02
38452;BME280;24231;52.514;13.438;2023-06-22T12:19:30;101349.15;;;27.65;32.60
38452;BME280;24231;52.514;13.438;2023-06-22T12:21:57;101353.37;;;27.81;32.13
38452;BME280;24231;52.514;13.438;2023-06-22T12:24:25;101348.95;;;27.58;33.32
38452;BME280;24231;52.514;13.438;2023-06-22T12:26:52;101349.29;;;27.09;33.21
38452;BME280;24231;52.514;13.438;2023-06-22T12:29:19;101334.89;;;27.48;32.82
38452;BME280;24231;52.514;13.438;2023-06-22T12:31:46;101339.23;;;26.93;33.89
38452;BME280;24231;52.514;13.438;2023-06-22T12:34:13;101324.45;;;27.22;33.71
38452;BME280;24231;52.514;13.438;2023-06-22T12:36:40;101321.94;;;27.60;32.51
38452;BME280;24231;52.514;13.438;2023-06-22T12:39:07;101319.81;;;27.52;32.79
38452;BME280;24231;52.514;13.438;2023-06-22T12:41:34;101325.58;;;26.74;34.44
38452;BME280;24231;52.514;13.438;2023-06-22T12:44:01;101321.00;;;27.48;33.31
38452;BME280;24231;52.514;13.438;2023-06-22T12:46:29;101317.80;;;27.76;32.69
38452;BME280;24231;52.514;13.438;2023-06-22T12:48:56;101315.50;;;27.99;32.90